createdAt,value
2018-07-17T00:00:07.874Z,18.20
2018-07-17T00:02:36.553Z,18.20
2018-07-17T00:05:06.532Z,18.20
2018-07-17T00:07:35.242Z,18.20
2018-07-17T00:10:03.954Z,18.20
2018-07-17T00:12:32.529Z,18.30
2018-07-17T00:15:01.146Z,18.30
2018-07-17T00:17:29.758Z,18.20
2018-07-17T00:19:58.374Z,18.20
2018-07-17T00:22:26.974Z,18.10
2018-07-17T00:24:55.549Z,18.00
2018-07-17T00:27:24.153Z,17.90
2018-07-17T00:29:52.746Z,17.70
2018-07-17T00:32:21.381Z,17.50
2018-07-17T00:34:49.989Z,17.70
2018-07-17T00:37:18.629Z,17.70
2018-07-17T00:39:47.225Z,17.70
2018-07-17T00:42:15.825Z,17.70
2018-07-17T00:44:44.461Z,17.60
2018-07-17T00:47:13.104Z,17.50
2018-07-17T00:49:41.768Z,17.50
2018-07-17T00:52:10.353Z,17.50
2018-07-17T00:54:38.955Z,17.60
2018-07-17T00:57:07.573Z,17.50
2018-07-17T00:59:36.169Z,17.50
2018-07-17T01:02:10.128Z,17.60
2018-07-17T01:04:43.879Z,17.60
2018-07-17T01:07:17.926Z,17.50
2018-07-17T01:09:51.627Z,17.50
2018-07-17T01:12:19.434Z,17.50
2018-07-17T01:15:05.341Z,17.40
2018-07-17T01:17:35.096Z,17.40
2018-07-17T01:20:03.744Z,17.30
2018-07-17T01:22:32.385Z,17.30
2018-07-17T01:25:00.969Z,17.20
2018-07-17T01:27:29.597Z,17.20
2018-07-17T01:29:58.194Z,17.20
2018-07-17T01:32:26.841Z,17.10
2018-07-17T01:34:55.454Z,17.10
2018-07-17T01:37:24.135Z,17.10
2018-07-17T01:39:52.698Z,17.00
2018-07-17T01:42:21.309Z,17.10
2018-07-17T01:44:49.909Z,17.00
2018-07-17T01:47:18.604Z,17.10
2018-07-17T01:49:47.173Z,17.10
2018-07-17T01:52:15.817Z,17.10
2018-07-17T01:54:44.416Z,17.10
2018-07-17T01:57:13.031Z,17.10
2018-07-17T01:59:41.598Z,17.00
2018-07-17T02:02:10.186Z,17.00
2018-07-17T02:04:38.792Z,17.00
2018-07-17T02:07:07.665Z,16.90
2018-07-17T02:09:36.261Z,16.80
2018-07-17T02:12:04.857Z,16.80
2018-07-17T02:14:33.502Z,16.70
2018-07-17T02:17:02.153Z,16.70
2018-07-17T02:19:30.723Z,16.70
2018-07-17T02:21:59.352Z,16.70
2018-07-17T02:24:28.057Z,16.60
2018-07-17T02:26:56.750Z,16.60
2018-07-17T02:29:25.323Z,16.60
2018-07-17T02:31:53.945Z,16.60
2018-07-17T02:34:22.558Z,16.60
2018-07-17T02:36:51.137Z,16.70
2018-07-17T02:39:19.732Z,16.80
2018-07-17T02:41:51.277Z,16.90
2018-07-17T02:44:20.111Z,17.00
2018-07-17T02:46:48.693Z,17.10
2018-07-17T02:49:17.463Z,17.20
2018-07-17T02:51:46.061Z,17.20
2018-07-17T02:54:14.679Z,17.20
2018-07-17T02:56:43.274Z,17.30
2018-07-17T02:59:11.890Z,17.30
2018-07-17T03:01:40.576Z,17.30
2018-07-17T03:04:09.252Z,17.40
2018-07-17T03:06:37.881Z,17.40
2018-07-17T03:09:06.993Z,17.40
2018-07-17T03:11:35.618Z,17.40
2018-07-17T03:14:04.277Z,17.40
2018-07-17T03:16:32.904Z,17.40
2018-07-17T03:19:01.497Z,17.40
2018-07-17T03:21:30.155Z,17.40
2018-07-17T03:23:58.741Z,17.30
2018-07-17T03:26:27.346Z,17.40
2018-07-17T03:31:24.201Z,17.20
2018-07-17T03:33:52.785Z,17.20
2018-07-17T03:36:21.476Z,17.20
2018-07-17T03:38:50.106Z,17.20
2018-07-17T03:41:18.677Z,17.20
2018-07-17T03:43:47.294Z,17.20
2018-07-17T03:46:15.883Z,17.20
2018-07-17T03:48:44.487Z,17.20
2018-07-17T03:51:13.129Z,17.30
2018-07-17T03:53:41.763Z,17.20
2018-07-17T03:56:10.337Z,17.20
2018-07-17T03:58:38.937Z,17.20
2018-07-17T04:01:07.579Z,17.20
2018-07-17T04:03:36.222Z,17.10
2018-07-17T04:06:04.997Z,17.10
2018-07-17T04:08:33.701Z,17.10
2018-07-17T04:11:02.309Z,17.10
2018-07-17T04:13:30.953Z,17.00
2018-07-17T04:15:59.608Z,17.00
2018-07-17T04:18:28.301Z,17.00
2018-07-17T04:20:56.886Z,17.00
2018-07-17T04:23:25.506Z,17.00
2018-07-17T04:25:54.222Z,17.00
2018-07-17T04:28:23.020Z,17.00
2018-07-17T04:30:51.630Z,17.00
2018-07-17T04:33:20.321Z,17.10
2018-07-17T04:35:48.922Z,17.00
2018-07-17T04:38:17.637Z,17.00
2018-07-17T04:40:46.299Z,17.10
2018-07-17T04:43:14.953Z,17.10
2018-07-17T04:45:43.546Z,17.20
2018-07-17T04:48:12.167Z,17.20
2018-07-17T04:50:41.053Z,17.20
2018-07-17T04:53:09.752Z,17.20
2018-07-17T04:58:06.701Z,17.20
2018-07-17T05:00:35.615Z,17.30
2018-07-17T05:03:04.359Z,17.30
2018-07-17T05:05:33.705Z,17.30
2018-07-17T05:08:02.550Z,17.20
2018-07-17T05:10:31.170Z,17.30
2018-07-17T05:12:59.861Z,17.30
2018-07-17T05:15:28.393Z,17.30
2018-07-17T05:17:57.449Z,17.30
2018-07-17T05:20:26.269Z,17.40
2018-07-17T05:22:55.219Z,17.40
2018-07-17T05:25:23.778Z,17.40
2018-07-17T05:27:52.574Z,17.40
2018-07-17T05:30:21.220Z,17.40
2018-07-17T05:32:49.993Z,17.50
2018-07-17T05:35:18.805Z,17.50
2018-07-17T05:37:47.589Z,17.60
2018-07-17T05:40:16.544Z,17.70
2018-07-17T05:42:45.306Z,17.80
2018-07-17T05:45:13.894Z,17.80
2018-07-17T05:47:42.527Z,17.90
2018-07-17T05:50:12.288Z,17.90
2018-07-17T05:52:41.360Z,18.00
2018-07-17T05:55:10.003Z,18.00
2018-07-17T05:57:38.759Z,18.10
2018-07-17T06:00:11.565Z,18.10
2018-07-17T06:02:40.326Z,18.20
2018-07-17T06:05:09.157Z,18.30
2018-07-17T06:07:38.076Z,18.30
2018-07-17T06:10:06.874Z,18.50
2018-07-17T06:12:35.508Z,18.50
2018-07-17T06:15:04.453Z,18.60
2018-07-17T06:17:33.058Z,18.70
2018-07-17T06:20:01.752Z,18.90
2018-07-17T06:22:30.353Z,19.00
2018-07-17T06:24:59.203Z,19.00
2018-07-17T06:27:27.765Z,19.10
2018-07-17T06:29:56.412Z,19.20
2018-07-17T06:32:25.110Z,19.30
2018-07-17T06:34:53.722Z,19.30
2018-07-17T06:37:22.425Z,19.40
2018-07-17T06:39:51.014Z,19.50
2018-07-17T06:42:20.110Z,19.50
2018-07-17T06:44:48.989Z,19.60
2018-07-17T06:47:17.631Z,19.60
2018-07-17T06:49:46.310Z,19.80
2018-07-17T06:52:14.890Z,19.90
2018-07-17T06:54:43.621Z,20.00
2018-07-17T06:57:12.214Z,20.20
2018-07-17T06:59:40.870Z,20.50
2018-07-17T07:02:09.478Z,20.70
2018-07-17T07:04:38.090Z,20.90
2018-07-17T07:07:07.052Z,21.00
2018-07-17T07:09:35.769Z,21.20
2018-07-17T07:12:04.585Z,21.30
2018-07-17T07:14:33.281Z,21.40
2018-07-17T07:17:01.897Z,21.50
2018-07-17T07:19:30.578Z,21.50
2018-07-17T07:21:59.165Z,21.50
2018-07-17T07:24:27.793Z,21.60
2018-07-17T07:26:56.383Z,21.60
2018-07-17T07:29:25.036Z,21.70
2018-07-17T07:31:53.734Z,21.70
2018-07-17T07:34:22.365Z,21.80
2018-07-17T07:36:51.028Z,21.80
2018-07-17T07:39:19.625Z,21.90
2018-07-17T07:44:16.477Z,22.00
2018-07-17T07:46:45.105Z,22.10
2018-07-17T07:49:13.808Z,22.20
2018-07-17T07:51:42.441Z,22.20
2018-07-17T07:54:11.077Z,22.20
2018-07-17T07:56:39.687Z,22.20
2018-07-17T07:59:08.305Z,22.30
2018-07-17T08:01:36.885Z,22.30
2018-07-17T08:04:05.939Z,22.20
2018-07-17T08:06:34.491Z,22.30
2018-07-17T08:09:03.446Z,22.20
2018-07-17T08:11:32.078Z,22.20
2018-07-17T08:14:00.711Z,22.20
2018-07-17T08:16:29.513Z,22.30
2018-07-17T08:18:58.125Z,22.30
2018-07-17T08:21:26.833Z,22.50
2018-07-17T08:23:55.449Z,22.50
2018-07-17T08:26:24.081Z,22.50
2018-07-17T08:28:52.728Z,22.50
2018-07-17T08:31:21.400Z,22.50
2018-07-17T08:33:50.039Z,22.50
2018-07-17T08:36:18.653Z,22.50
2018-07-17T08:38:47.233Z,22.60
2018-07-17T08:41:15.885Z,22.70
2018-07-17T08:43:44.562Z,22.80
2018-07-17T08:46:13.133Z,23.00
2018-07-17T08:48:41.726Z,23.20
2018-07-17T08:51:10.362Z,23.40
2018-07-17T08:53:38.961Z,23.60
2018-07-17T08:58:35.814Z,24.00
2018-07-17T09:01:04.417Z,24.10
2018-07-17T09:03:33.006Z,24.20
2018-07-17T09:06:01.738Z,24.30
2018-07-17T09:08:30.421Z,24.30
2018-07-17T09:10:59.056Z,24.30
2018-07-17T09:13:27.681Z,24.40
2018-07-17T09:15:56.266Z,24.50
2018-07-17T09:18:24.865Z,24.50
2018-07-17T09:20:53.461Z,24.60
2018-07-17T09:23:22.124Z,24.70
2018-07-17T09:25:50.773Z,24.80
2018-07-17T09:28:19.435Z,25.10
2018-07-17T09:30:53.274Z,25.30
2018-07-17T09:33:21.878Z,25.40
2018-07-17T09:35:50.470Z,25.50
2018-07-17T09:38:19.093Z,25.50
2018-07-17T09:40:47.728Z,25.60
2018-07-17T09:43:16.344Z,25.60
2018-07-17T09:45:44.957Z,25.60
2018-07-17T09:48:13.529Z,25.70
2018-07-17T09:50:42.153Z,25.60
2018-07-17T09:53:10.745Z,25.70
2018-07-17T09:55:39.381Z,25.80
2018-07-17T09:58:08.133Z,25.90
2018-07-17T10:00:41.979Z,26.00
2018-07-17T10:03:11.455Z,26.10
2018-07-17T10:05:40.107Z,26.20
2018-07-17T10:08:08.723Z,26.20
2018-07-17T10:10:37.318Z,26.30
2018-07-17T10:13:06.161Z,26.50
2018-07-17T10:15:34.769Z,26.60
2018-07-17T10:18:03.359Z,26.80
2018-07-17T10:20:32.676Z,27.10
2018-07-17T10:23:01.271Z,27.30
2018-07-17T10:25:29.882Z,27.40
2018-07-17T10:27:58.474Z,27.60
2018-07-17T10:30:27.137Z,27.70
2018-07-17T10:32:55.837Z,27.90
2018-07-17T10:35:24.398Z,28.10
2018-07-17T10:37:52.985Z,28.20
2018-07-17T10:40:21.582Z,28.50
2018-07-17T10:42:50.245Z,28.50
2018-07-17T10:45:18.925Z,28.40
2018-07-17T10:47:47.534Z,28.50
2018-07-17T10:50:16.198Z,28.60
2018-07-17T10:52:44.826Z,28.70
2018-07-17T10:55:13.405Z,28.70
2018-07-17T10:57:42.095Z,28.80
2018-07-17T11:00:10.685Z,28.90
2018-07-17T11:02:39.322Z,29.00
2018-07-17T11:05:07.963Z,29.20
2018-07-17T11:07:36.798Z,29.10
2018-07-17T11:10:05.496Z,29.30
2018-07-17T11:12:34.089Z,29.50
2018-07-17T11:15:02.762Z,29.60
2018-07-17T11:17:31.373Z,29.80
2018-07-17T11:19:59.978Z,29.90
2018-07-17T11:22:28.605Z,30.00
2018-07-17T11:24:57.285Z,30.10
2018-07-17T11:27:29.412Z,30.20
2018-07-17T11:29:58.075Z,30.40
2018-07-17T11:32:26.686Z,30.60
2018-07-17T11:34:55.278Z,30.70
2018-07-17T11:37:23.889Z,30.80
2018-07-17T11:39:52.501Z,31.00
2018-07-17T11:42:21.086Z,30.90
2018-07-17T11:44:49.663Z,30.90
2018-07-17T11:47:18.302Z,31.00
2018-07-17T11:49:46.893Z,31.10
2018-07-17T11:52:15.846Z,31.20
2018-07-17T11:54:44.473Z,31.20
2018-07-17T11:57:13.091Z,31.10
2018-07-17T11:59:41.676Z,31.00
2018-07-17T12:02:10.270Z,30.90
2018-07-17T12:04:38.861Z,31.10
2018-07-17T12:07:07.499Z,31.40
2018-07-17T12:09:36.113Z,31.50
2018-07-17T12:12:04.741Z,31.60
2018-07-17T12:14:33.361Z,31.10
2018-07-17T12:17:01.981Z,30.80
2018-07-17T12:19:30.574Z,31.00
2018-07-17T12:21:59.160Z,31.10
2018-07-17T12:24:27.766Z,31.30
2018-07-17T12:26:56.396Z,31.00
2018-07-17T12:29:25.080Z,31.20
2018-07-17T12:31:53.694Z,31.10
2018-07-17T12:34:22.333Z,31.10
2018-07-17T12:36:50.897Z,31.50
2018-07-17T12:39:19.520Z,31.70
2018-07-17T12:41:48.124Z,32.00
2018-07-17T12:44:16.765Z,31.60
2018-07-17T12:46:45.409Z,31.40
2018-07-17T12:49:14.041Z,31.70
2018-07-17T12:51:42.629Z,31.60
2018-07-17T12:54:11.242Z,31.50
2018-07-17T12:56:39.901Z,31.80
2018-07-17T12:59:08.494Z,32.10
2018-07-17T13:01:37.137Z,32.20
2018-07-17T13:04:05.793Z,32.20
2018-07-17T13:06:34.411Z,32.10
2018-07-17T13:09:03.148Z,31.90
2018-07-17T13:11:32.589Z,31.90
2018-07-17T13:14:01.189Z,32.00
2018-07-17T13:16:29.765Z,31.70
2018-07-17T13:18:58.370Z,31.40
2018-07-17T13:21:27.009Z,31.00
2018-07-17T13:23:55.958Z,31.30
2018-07-17T13:26:24.589Z,31.60
2018-07-17T13:28:53.488Z,32.00
2018-07-17T13:31:22.117Z,32.20
2018-07-17T13:33:50.788Z,32.40
2018-07-17T13:36:20.308Z,32.20
2018-07-17T13:38:48.909Z,32.50
2018-07-17T13:41:17.523Z,32.70
2018-07-17T13:43:46.193Z,32.60
2018-07-17T13:46:14.729Z,32.80
2018-07-17T13:48:43.325Z,33.10
2018-07-17T13:51:11.967Z,33.30
2018-07-17T13:53:40.545Z,33.60
2018-07-17T13:56:09.186Z,33.80
2018-07-17T13:58:37.785Z,34.10
2018-07-17T14:01:06.426Z,33.80
2018-07-17T14:03:35.000Z,33.20
2018-07-17T14:06:03.633Z,32.60
2018-07-17T14:08:32.970Z,32.10
2018-07-17T14:11:01.634Z,31.50
2018-07-17T14:13:30.241Z,31.70
2018-07-17T14:15:58.873Z,32.00
2018-07-17T14:18:27.466Z,32.10
2018-07-17T14:20:56.053Z,32.40
2018-07-17T14:23:24.724Z,32.30
2018-07-17T14:25:53.714Z,32.40
2018-07-17T14:28:22.296Z,32.30
2018-07-17T14:30:50.885Z,32.10
2018-07-17T14:33:19.485Z,31.90
2018-07-17T14:35:48.143Z,31.60
2018-07-17T14:38:16.766Z,31.10
2018-07-17T14:40:45.380Z,30.80
2018-07-17T14:43:13.981Z,30.60
2018-07-17T14:45:42.565Z,30.40
2018-07-17T14:48:11.209Z,30.10
2018-07-17T14:50:39.836Z,30.00
2018-07-17T14:53:08.490Z,29.70
2018-07-17T14:55:37.076Z,29.50
2018-07-17T14:58:05.840Z,29.40
2018-07-17T15:00:34.457Z,29.30
2018-07-17T15:03:03.085Z,29.20
2018-07-17T15:05:31.642Z,29.10
2018-07-17T15:08:00.277Z,28.90
2018-07-17T15:10:28.840Z,28.90
2018-07-17T15:12:57.440Z,28.90
2018-07-17T15:15:26.044Z,28.90
2018-07-17T15:17:54.658Z,28.90
2018-07-17T15:20:23.265Z,28.80
2018-07-17T15:22:51.947Z,28.70
2018-07-17T15:25:20.521Z,28.60
2018-07-17T15:27:49.219Z,28.50
2018-07-17T15:30:17.815Z,28.40
2018-07-17T15:32:46.377Z,28.30
2018-07-17T15:35:15.044Z,28.20
2018-07-17T15:37:43.583Z,28.10
2018-07-17T15:40:12.221Z,28.10
2018-07-17T15:42:40.798Z,28.00
2018-07-17T15:45:09.425Z,28.00
2018-07-17T15:47:38.026Z,27.90
2018-07-17T15:50:06.624Z,27.90
2018-07-17T15:52:35.250Z,28.00
2018-07-17T15:55:03.873Z,27.90
2018-07-17T15:57:32.510Z,27.80
2018-07-17T16:00:01.273Z,27.70
2018-07-17T16:02:29.838Z,27.60
2018-07-17T16:04:58.477Z,27.60
2018-07-17T16:07:27.153Z,27.90
2018-07-17T16:09:55.810Z,28.40
2018-07-17T16:12:24.410Z,28.60
2018-07-17T16:14:53.109Z,28.90
2018-07-17T16:17:21.840Z,29.20
2018-07-17T16:19:50.490Z,29.20
2018-07-17T16:22:19.083Z,29.00
2018-07-17T16:24:47.672Z,28.80
2018-07-17T16:27:16.293Z,28.40
2018-07-17T16:29:44.845Z,28.20
2018-07-17T16:32:13.449Z,27.90
2018-07-17T16:34:42.016Z,27.60
2018-07-17T16:37:10.633Z,27.40
2018-07-17T16:39:39.259Z,27.20
2018-07-17T16:42:07.894Z,27.10
2018-07-17T16:44:36.489Z,27.00
2018-07-17T16:47:05.221Z,26.90
2018-07-17T16:49:33.925Z,26.80
2018-07-17T16:52:02.521Z,26.70
2018-07-17T16:54:31.166Z,26.70
2018-07-17T16:56:59.739Z,26.60
2018-07-17T16:59:28.316Z,26.50
2018-07-17T17:01:56.939Z,26.40
2018-07-17T17:04:25.583Z,26.30
2018-07-17T17:06:54.177Z,26.20
2018-07-17T17:09:22.774Z,26.10
2018-07-17T17:11:51.362Z,26.00
2018-07-17T17:14:19.953Z,26.00
2018-07-17T17:16:48.521Z,25.90
2018-07-17T17:19:17.161Z,25.80
2018-07-17T17:21:45.761Z,25.60
2018-07-17T17:24:14.696Z,25.40
2018-07-17T17:26:43.273Z,25.30
2018-07-17T17:29:11.935Z,25.10
2018-07-17T17:31:40.577Z,25.00
2018-07-17T17:34:09.202Z,25.00
2018-07-17T17:36:37.885Z,24.90
2018-07-17T17:39:08.589Z,24.90
2018-07-17T17:41:37.263Z,24.80
2018-07-17T17:44:06.849Z,24.70
2018-07-17T17:46:35.462Z,24.70
2018-07-17T17:49:04.043Z,24.60
2018-07-17T17:51:32.753Z,24.40
2018-07-17T17:54:01.379Z,24.10
2018-07-17T17:56:30.123Z,23.90
2018-07-17T17:58:58.721Z,23.70
2018-07-17T18:01:27.301Z,23.60
2018-07-17T18:03:55.916Z,23.40
2018-07-17T18:06:24.516Z,23.20
2018-07-17T18:08:53.162Z,23.00
2018-07-17T18:11:21.805Z,23.00
2018-07-17T18:13:50.409Z,22.90
2018-07-17T18:16:18.996Z,22.80
2018-07-17T18:18:47.589Z,22.70
2018-07-17T18:21:16.258Z,22.60
2018-07-17T18:23:45.024Z,22.60
2018-07-17T18:26:13.601Z,22.50
2018-07-17T18:28:42.196Z,22.50
2018-07-17T18:31:13.519Z,22.40
2018-07-17T18:33:47.389Z,22.40
2018-07-17T18:36:19.318Z,22.40
2018-07-17T18:38:48.096Z,22.40
2018-07-17T18:41:17.766Z,22.40
2018-07-17T18:43:46.762Z,22.40
2018-07-17T18:46:15.373Z,22.40
2018-07-17T18:48:49.330Z,22.40
2018-07-17T18:51:18.381Z,22.40
2018-07-17T18:53:49.351Z,22.30
2018-07-17T18:56:20.184Z,22.30
2018-07-17T18:58:48.785Z,22.20
2018-07-17T19:01:17.445Z,22.20
2018-07-17T19:03:46.105Z,22.20
2018-07-17T19:06:17.714Z,22.10
2018-07-17T19:08:47.620Z,22.10
2018-07-17T19:11:17.565Z,22.00
2018-07-17T19:13:46.909Z,22.00
2018-07-17T19:16:17.512Z,21.90
2018-07-17T19:18:46.921Z,21.90
2018-07-17T19:21:16.066Z,21.80
2018-07-17T19:23:46.240Z,21.90
2018-07-17T19:26:15.161Z,21.80
2018-07-17T19:28:45.256Z,21.80
2018-07-17T19:31:14.868Z,21.70
2018-07-17T19:33:46.140Z,21.70
2018-07-17T19:36:16.119Z,21.60
2018-07-17T19:38:46.476Z,21.50
2018-07-17T19:41:15.082Z,21.40
2018-07-17T19:43:43.692Z,21.30
2018-07-17T19:46:12.313Z,21.30
2018-07-17T19:48:40.931Z,21.20
2018-07-17T19:51:09.550Z,21.10
2018-07-17T19:53:38.149Z,21.10
2018-07-17T19:56:06.724Z,21.00
2018-07-17T19:58:35.325Z,20.90
2018-07-17T20:01:04.010Z,20.90
2018-07-17T20:03:32.615Z,20.80
2018-07-17T20:06:01.237Z,20.80
2018-07-17T20:08:29.906Z,20.60
2018-07-17T20:10:58.464Z,20.60
2018-07-17T20:13:27.074Z,20.50
2018-07-17T20:18:23.906Z,20.40
2018-07-17T20:20:52.548Z,20.30
2018-07-17T20:23:21.193Z,20.30
2018-07-17T20:25:49.921Z,20.20
2018-07-17T20:28:18.520Z,20.20
2018-07-17T20:30:47.125Z,20.20
2018-07-17T20:33:15.714Z,20.30
2018-07-17T20:35:44.339Z,20.20
2018-07-17T20:38:12.961Z,20.20
2018-07-17T20:40:41.607Z,20.20
2018-07-17T20:43:10.177Z,20.20
2018-07-17T20:45:38.773Z,20.10
2018-07-17T20:48:07.392Z,20.10
2018-07-17T20:50:35.961Z,20.10
2018-07-17T20:53:04.601Z,20.10
2018-07-17T20:55:33.202Z,20.00
2018-07-17T20:58:01.790Z,20.00
2018-07-17T21:00:30.422Z,20.00
2018-07-17T21:02:59.069Z,19.90
2018-07-17T21:05:27.746Z,19.80
2018-07-17T21:07:56.345Z,19.80
2018-07-17T21:10:24.987Z,19.70
2018-07-17T21:12:53.578Z,19.60
2018-07-17T21:15:22.164Z,19.50
2018-07-17T21:17:50.754Z,19.40
2018-07-17T21:20:19.352Z,19.30
2018-07-17T21:22:47.935Z,19.30
2018-07-17T21:25:16.549Z,19.20
2018-07-17T21:27:45.126Z,19.20
2018-07-17T21:30:13.709Z,19.00
2018-07-17T21:32:42.302Z,19.00
2018-07-17T21:35:10.872Z,19.00
2018-07-17T21:40:07.819Z,19.00
2018-07-17T21:42:36.488Z,19.00
2018-07-17T21:45:05.153Z,18.90
2018-07-17T21:47:33.745Z,18.90
2018-07-17T21:50:02.321Z,18.80
2018-07-17T21:52:30.953Z,18.80
2018-07-17T21:54:59.512Z,18.70
2018-07-17T21:57:28.097Z,18.70
2018-07-17T21:59:56.680Z,18.70
2018-07-17T22:02:25.305Z,18.60
2018-07-17T22:04:53.963Z,18.60
2018-07-17T22:07:22.528Z,18.60
2018-07-17T22:09:51.149Z,18.50
2018-07-17T22:12:19.726Z,18.40
2018-07-17T22:14:48.321Z,18.50
2018-07-17T22:17:16.885Z,18.50
2018-07-17T22:19:45.531Z,18.50
2018-07-17T22:22:14.168Z,18.60
2018-07-17T22:24:42.781Z,18.50
2018-07-17T22:27:11.369Z,18.60
2018-07-17T22:29:39.957Z,18.60
2018-07-17T22:32:08.530Z,18.50
2018-07-17T22:34:37.122Z,18.50
2018-07-17T22:37:05.758Z,18.40
2018-07-17T22:39:34.334Z,18.40
2018-07-17T22:42:02.940Z,18.30
2018-07-17T22:44:31.512Z,18.20
2018-07-17T22:47:00.101Z,18.20
2018-07-17T22:49:28.674Z,18.10
2018-07-17T22:51:57.262Z,18.10
2018-07-17T22:54:25.825Z,18.00
2018-07-17T22:56:54.457Z,18.00
2018-07-17T22:59:23.137Z,17.90
2018-07-17T23:01:51.808Z,17.90
2018-07-17T23:04:20.393Z,17.80
2018-07-17T23:06:49.005Z,17.80
2018-07-17T23:09:17.600Z,17.70
2018-07-17T23:11:46.201Z,17.70
2018-07-17T23:14:14.773Z,17.60
2018-07-17T23:16:43.372Z,17.60
2018-07-17T23:19:11.949Z,17.50
2018-07-17T23:21:40.565Z,17.50
2018-07-17T23:24:09.234Z,17.40
2018-07-17T23:26:37.821Z,17.40
2018-07-17T23:29:06.438Z,17.30
2018-07-17T23:31:35.026Z,17.20
2018-07-17T23:34:03.706Z,17.20
2018-07-17T23:36:32.266Z,17.20
2018-07-17T23:39:00.885Z,17.10
2018-07-17T23:41:29.446Z,17.00
2018-07-17T23:43:58.044Z,17.00
2018-07-17T23:46:26.686Z,17.00
2018-07-17T23:48:55.269Z,17.00
2018-07-17T23:51:23.849Z,16.90
2018-07-17T23:53:52.412Z,16.80
2018-07-17T23:56:21.018Z,16.80
2018-07-17T23:58:49.585Z,16.80
